<?xml version="1.0" encoding="UTF-8" standalone="no" ?>
<gpx xmlns="http://www.topografix.com/GPX/1/1" xmlns:xsi="http://www.w3.org/2001/XMLSchema-instance" xsi:schemaLocation="http://www.topografix.com/GPX/1/1 http://www.topografix.com/GPX/1/1/gpx.xsd" version="1.1" creator="VisuGPX - https://www.visugpx.com">
  <metadata>
    <name>Vacances 2021</name>
  </metadata>
  <trk>
    <name><![CDATA[Journal actif: 2021-07-23 14:15]]></name>
    <trkseg>
      <trkpt lat="49.19063" lon="5.46338">
        <ele>360.63</ele>
        <time>2021-07-23T16:15:10Z</time>
      </trkpt>
      <trkpt lat="49.19062" lon="5.4634">
        <ele>358.23</ele>
        <time>2021-07-23T16:15:53Z</time>
      </trkpt>
      <trkpt lat="49.1904" lon="5.46332">
        <ele>351.98</ele>
        <time>2021-07-23T16:16:02Z</time>
      </trkpt>
      <trkpt lat="49.19023" lon="5.46316">
        <ele>348.13</ele>
        <time>2021-07-23T16:16:06Z</time>
      </trkpt>
      <trkpt lat="49.19015" lon="5.46306">
        <ele>345.73</ele>
        <time>2021-07-23T16:16:08Z</time>
      </trkpt>
      <trkpt lat="49.19011" lon="5.463">
        <ele>344.77</ele>
        <time>2021-07-23T16:16:09Z</time>
      </trkpt>
      <trkpt lat="49.19008" lon="5.46293">
        <ele>343.81</ele>
        <time>2021-07-23T16:16:10Z</time>
      </trkpt>
      <trkpt lat="49.19005" lon="5.46286">
        <ele>343.81</ele>
        <time>2021-07-23T16:16:11Z</time>
      </trkpt>
      <trkpt lat="49.19002" lon="5.46279">
        <ele>344.29</ele>
        <time>2021-07-23T16:16:12Z</time>
      </trkpt>
      <trkpt lat="49.18999" lon="5.46271">
        <ele>343.33</ele>
        <time>2021-07-23T16:16:13Z</time>
      </trkpt>
      <trkpt lat="49.18972" lon="5.46151">
        <ele>337.56</ele>
        <time>2021-07-23T16:16:26Z</time>
      </trkpt>
      <trkpt lat="49.18937" lon="5.45947">
        <ele>329.39</ele>
        <time>2021-07-23T16:16:41Z</time>
      </trkpt>
      <trkpt lat="49.1892" lon="5.45844">
        <ele>324.58</ele>
        <time>2021-07-23T16:16:51Z</time>
      </trkpt>
      <trkpt lat="49.18917" lon="5.45833">
        <ele>324.58</ele>
        <time>2021-07-23T16:16:52Z</time>
      </trkpt>
      <trkpt lat="49.18911" lon="5.45823">
        <ele>324.1</ele>
        <time>2021-07-23T16:16:53Z</time>
      </trkpt>
      <trkpt lat="49.18905" lon="5.45814">
        <ele>324.1</ele>
        <time>2021-07-23T16:16:54Z</time>
      </trkpt>
      <trkpt lat="49.18898" lon="5.45808">
        <ele>324.1</ele>
        <time>2021-07-23T16:16:55Z</time>
      </trkpt>
      <trkpt lat="49.18891" lon="5.45807">
        <ele>324.1</ele>
        <time>2021-07-23T16:16:56Z</time>
      </trkpt>
      <trkpt lat="49.18884" lon="5.45806">
        <ele>323.62</ele>
        <time>2021-07-23T16:16:57Z</time>
      </trkpt>
      <trkpt lat="49.18878" lon="5.45807">
        <ele>323.14</ele>
        <time>2021-07-23T16:16:58Z</time>
      </trkpt>
      <trkpt lat="49.18873" lon="5.45813">
        <ele>322.66</ele>
        <time>2021-07-23T16:16:59Z</time>
      </trkpt>
      <trkpt lat="49.18869" lon="5.45819">
        <ele>321.7</ele>
        <time>2021-07-23T16:17:00Z</time>
      </trkpt>
      <trkpt lat="49.18867" lon="5.45825">
        <ele>320.74</ele>
        <time>2021-07-23T16:17:01Z</time>
      </trkpt>
      <trkpt lat="49.18865" lon="5.45833">
        <ele>319.78</ele>
        <time>2021-07-23T16:17:02Z</time>
      </trkpt>
      <trkpt lat="49.18862" lon="5.45841">
        <ele>319.78</ele>
        <time>2021-07-23T16:17:03Z</time>
      </trkpt>
      <trkpt lat="49.18844" lon="5.45898">
        <ele>317.37</ele>
        <time>2021-07-23T16:17:09Z</time>
      </trkpt>
      <trkpt lat="49.18838" lon="5.45919">
        <ele>316.89</ele>
        <time>2021-07-23T16:17:11Z</time>
      </trkpt>
      <trkpt lat="49.18792" lon="5.46065">
        <ele>316.41</ele>
        <time>2021-07-23T16:17:25Z</time>
      </trkpt>
      <trkpt lat="49.18781" lon="5.461">
        <ele>316.41</ele>
        <time>2021-07-23T16:17:28Z</time>
      </trkpt>
      <trkpt lat="49.18775" lon="5.46111">
        <ele>317.37</ele>
        <time>2021-07-23T16:17:29Z</time>
      </trkpt>
      <trkpt lat="49.18769" lon="5.4612">
        <ele>317.37</ele>
        <time>2021-07-23T16:17:30Z</time>
      </trkpt>
      <trkpt lat="49.18762" lon="5.46126">
        <ele>317.85</ele>
        <time>2021-07-23T16:17:31Z</time>
      </trkpt>
      <trkpt lat="49.18754" lon="5.46132">
        <ele>317.85</ele>
        <time>2021-07-23T16:17:32Z</time>
      </trkpt>
      <trkpt lat="49.18748" lon="5.46134">
        <ele>317.85</ele>
        <time>2021-07-23T16:17:33Z</time>
      </trkpt>
      <trkpt lat="49.18741" lon="5.46133">
        <ele>317.37</ele>
        <time>2021-07-23T16:17:34Z</time>
      </trkpt>
      <trkpt lat="49.18733" lon="5.46133">
        <ele>317.85</ele>
        <time>2021-07-23T16:17:35Z</time>
      </trkpt>
      <trkpt lat="49.18725" lon="5.46132">
        <ele>317.85</ele>
        <time>2021-07-23T16:17:36Z</time>
      </trkpt>
      <trkpt lat="49.18719" lon="5.46127">
        <ele>318.33</ele>
        <time>2021-07-23T16:17:37Z</time>
      </trkpt>
      <trkpt lat="49.18711" lon="5.46122">
        <ele>319.3</ele>
        <time>2021-07-23T16:17:38Z</time>
      </trkpt>
      <trkpt lat="49.18617" lon="5.46021">
        <ele>330.35</ele>
        <time>2021-07-23T16:17:49Z</time>
      </trkpt>
      <trkpt lat="49.1852" lon="5.45916">
        <ele>336.12</ele>
        <time>2021-07-23T16:18:00Z</time>
      </trkpt>
      <trkpt lat="49.1839" lon="5.45773">
        <ele>332.27</ele>
        <time>2021-07-23T16:18:13Z</time>
      </trkpt>
      <trkpt lat="49.18303" lon="5.45677">
        <ele>326.99</ele>
        <time>2021-07-23T16:18:24Z</time>
      </trkpt>
      <trkpt lat="49.18284" lon="5.4565">
        <ele>330.35</ele>
        <time>2021-07-23T16:18:32Z</time>
      </trkpt>
      <trkpt lat="49.18294" lon="5.45576">
        <ele>333.23</ele>
        <time>2021-07-23T16:18:43Z</time>
      </trkpt>
      <trkpt lat="49.183" lon="5.45439">
        <ele>339</ele>
        <time>2021-07-23T16:18:54Z</time>
      </trkpt>
      <trkpt lat="49.18308" lon="5.45271">
        <ele>344.29</ele>
        <time>2021-07-23T16:19:08Z</time>
      </trkpt>
      <trkpt lat="49.18311" lon="5.45202">
        <ele>347.65</ele>
        <time>2021-07-23T16:19:19Z</time>
      </trkpt>
      <trkpt lat="49.18315" lon="5.45109">
        <ele>350.06</ele>
        <time>2021-07-23T16:19:32Z</time>
      </trkpt>
      <trkpt lat="49.18321" lon="5.44982">
        <ele>352.46</ele>
        <time>2021-07-23T16:19:44Z</time>
      </trkpt>
      <trkpt lat="49.18331" lon="5.44822">
        <ele>355.83</ele>
        <time>2021-07-23T16:19:57Z</time>
      </trkpt>
      <trkpt lat="49.18332" lon="5.4481">
        <ele>355.83</ele>
        <time>2021-07-23T16:19:58Z</time>
      </trkpt>
      <trkpt lat="49.18334" lon="5.44798">
        <ele>355.83</ele>
        <time>2021-07-23T16:19:59Z</time>
      </trkpt>
      <trkpt lat="49.18337" lon="5.44785">
        <ele>355.34</ele>
        <time>2021-07-23T16:20:00Z</time>
      </trkpt>
      <trkpt lat="49.18346" lon="5.44763">
        <ele>354.86</ele>
        <time>2021-07-23T16:20:02Z</time>
      </trkpt>
      <trkpt lat="49.18352" lon="5.44754">
        <ele>354.86</ele>
        <time>2021-07-23T16:20:03Z</time>
      </trkpt>
      <trkpt lat="49.1836" lon="5.44747">
        <ele>354.86</ele>
        <time>2021-07-23T16:20:04Z</time>
      </trkpt>
      <trkpt lat="49.18367" lon="5.44741">
        <ele>355.34</ele>
        <time>2021-07-23T16:20:05Z</time>
      </trkpt>
      <trkpt lat="49.18375" lon="5.44734">
        <ele>355.34</ele>
        <time>2021-07-23T16:20:06Z</time>
      </trkpt>
      <trkpt lat="49.18384" lon="5.4473">
        <ele>355.34</ele>
        <time>2021-07-23T16:20:07Z</time>
      </trkpt>
      <trkpt lat="49.18393" lon="5.44726">
        <ele>354.86</ele>
        <time>2021-07-23T16:20:08Z</time>
      </trkpt>
      <trkpt lat="49.18525" lon="5.44705">
        <ele>351.98</ele>
        <time>2021-07-23T16:20:20Z</time>
      </trkpt>
      <trkpt lat="49.18577" lon="5.44697">
        <ele>351.5</ele>
        <time>2021-07-23T16:20:26Z</time>
      </trkpt>
      <trkpt lat="49.186" lon="5.44689">
        <ele>353.9</ele>
        <time>2021-07-23T16:20:34Z</time>
      </trkpt>
      <trkpt lat="49.186" lon="5.44689">
        <ele>354.38</ele>
        <time>2021-07-23T16:20:53Z</time>
      </trkpt>
      <trkpt lat="49.18633" lon="5.44662">
        <ele>353.9</ele>
        <time>2021-07-23T16:21:02Z</time>
      </trkpt>
      <trkpt lat="49.18658" lon="5.44637">
        <ele>353.9</ele>
        <time>2021-07-23T16:21:06Z</time>
      </trkpt>
      <trkpt lat="49.18664" lon="5.44632">
        <ele>353.9</ele>
        <time>2021-07-23T16:21:07Z</time>
      </trkpt>
      <trkpt lat="49.18669" lon="5.4463">
        <ele>354.38</ele>
        <time>2021-07-23T16:21:08Z</time>
      </trkpt>
      <trkpt lat="49.18733" lon="5.44619">
        <ele>354.86</ele>
        <time>2021-07-23T16:21:18Z</time>
      </trkpt>
      <trkpt lat="49.18818" lon="5.44608">
        <ele>355.34</ele>
        <time>2021-07-23T16:21:27Z</time>
      </trkpt>
      <trkpt lat="49.18825" lon="5.44603">
        <ele>355.34</ele>
        <time>2021-07-23T16:21:28Z</time>
      </trkpt>
      <trkpt lat="49.18832" lon="5.44598">
        <ele>355.83</ele>
        <time>2021-07-23T16:21:29Z</time>
      </trkpt>
      <trkpt lat="49.18838" lon="5.44588">
        <ele>356.31</ele>
        <time>2021-07-23T16:21:30Z</time>
      </trkpt>
      <trkpt lat="49.18845" lon="5.44575">
        <ele>357.27</ele>
        <time>2021-07-23T16:21:31Z</time>
      </trkpt>
      <trkpt lat="49.1885" lon="5.44563">
        <ele>358.23</ele>
        <time>2021-07-23T16:21:32Z</time>
      </trkpt>
      <trkpt lat="49.18854" lon="5.44549">
        <ele>358.71</ele>
        <time>2021-07-23T16:21:33Z</time>
      </trkpt>
      <trkpt lat="49.18893" lon="5.4439">
        <ele>366.4</ele>
        <time>2021-07-23T16:21:44Z</time>
      </trkpt>
      <trkpt lat="49.18923" lon="5.44281">
        <ele>369.28</ele>
        <time>2021-07-23T16:21:56Z</time>
      </trkpt>
      <trkpt lat="49.1893" lon="5.44254">
        <ele>369.76</ele>
        <time>2021-07-23T16:21:59Z</time>
      </trkpt>
      <trkpt lat="49.18932" lon="5.44248">
        <ele>369.76</ele>
        <time>2021-07-23T16:22:00Z</time>
      </trkpt>
      <trkpt lat="49.18933" lon="5.44244">
        <ele>369.76</ele>
        <time>2021-07-23T16:22:01Z</time>
      </trkpt>
      <trkpt lat="49.18936" lon="5.44233">
        <ele>370.24</ele>
        <time>2021-07-23T16:22:11Z</time>
      </trkpt>
      <trkpt lat="49.18936" lon="5.44233">
        <ele>370.24</ele>
        <time>2021-07-23T16:28:38Z</time>
      </trkpt>
      <trkpt lat="49.18936" lon="5.44233">
        <ele>370.24</ele>
        <time>2021-07-23T16:30:09Z</time>
      </trkpt>
      <trkpt lat="49.18936" lon="5.44233">
        <ele>370.24</ele>
        <time>2021-07-23T16:32:16Z</time>
      </trkpt>
      <trkpt lat="49.18936" lon="5.44233">
        <ele>372.65</ele>
        <time>2021-07-23T16:33:15Z</time>
      </trkpt>
      <trkpt lat="49.18936" lon="5.44233">
        <ele>372.65</ele>
        <time>2021-07-23T16:33:20Z</time>
      </trkpt>
      <trkpt lat="49.18936" lon="5.44233">
        <ele>372.17</ele>
        <time>2021-07-23T16:33:21Z</time>
      </trkpt>
      <trkpt lat="49.1894" lon="5.44219">
        <ele>372.17</ele>
        <time>2021-07-23T16:33:23Z</time>
      </trkpt>
      <trkpt lat="49.18941" lon="5.44213">
        <ele>372.17</ele>
        <time>2021-07-23T16:33:24Z</time>
      </trkpt>
      <trkpt lat="49.18943" lon="5.44206">
        <ele>371.69</ele>
        <time>2021-07-23T16:33:25Z</time>
      </trkpt>
      <trkpt lat="49.18988" lon="5.44099">
        <ele>367.36</ele>
        <time>2021-07-23T16:33:37Z</time>
      </trkpt>
      <trkpt lat="49.19066" lon="5.43963">
        <ele>359.67</ele>
        <time>2021-07-23T16:33:49Z</time>
      </trkpt>
      <trkpt lat="49.19136" lon="5.43879">
        <ele>352.94</ele>
        <time>2021-07-23T16:33:58Z</time>
      </trkpt>
      <trkpt lat="49.19209" lon="5.43801">
        <ele>349.1</ele>
        <time>2021-07-23T16:34:12Z</time>
      </trkpt>
      <trkpt lat="49.19228" lon="5.43792">
        <ele>348.62</ele>
        <time>2021-07-23T16:34:18Z</time>
      </trkpt>
      <trkpt lat="49.19231" lon="5.43796">
        <ele>348.62</ele>
        <time>2021-07-23T16:34:19Z</time>
      </trkpt>
      <trkpt lat="49.19283" lon="5.43856">
        <ele>343.81</ele>
        <time>2021-07-23T16:34:28Z</time>
      </trkpt>
      <trkpt lat="49.19403" lon="5.44015">
        <ele>335.16</ele>
        <time>2021-07-23T16:34:42Z</time>
      </trkpt>
      <trkpt lat="49.19425" lon="5.44054">
        <ele>333.23</ele>
        <time>2021-07-23T16:34:45Z</time>
      </trkpt>
      <trkpt lat="49.19431" lon="5.4407">
        <ele>332.75</ele>
        <time>2021-07-23T16:34:46Z</time>
      </trkpt>
      <trkpt lat="49.19458" lon="5.44199">
        <ele>325.06</ele>
        <time>2021-07-23T16:34:54Z</time>
      </trkpt>
      <trkpt lat="49.19478" lon="5.4439">
        <ele>320.74</ele>
        <time>2021-07-23T16:35:05Z</time>
      </trkpt>
      <trkpt lat="49.19481" lon="5.44407">
        <ele>320.26</ele>
        <time>2021-07-23T16:35:06Z</time>
      </trkpt>
      <trkpt lat="49.19513" lon="5.44521">
        <ele>314.97</ele>
        <time>2021-07-23T16:35:16Z</time>
      </trkpt>
      <trkpt lat="49.19542" lon="5.44578">
        <ele>314.01</ele>
        <time>2021-07-23T16:35:22Z</time>
      </trkpt>
      <trkpt lat="49.19628" lon="5.447">
        <ele>307.28</ele>
        <time>2021-07-23T16:35:32Z</time>
      </trkpt>
      <trkpt lat="49.19759" lon="5.44836">
        <ele>298.15</ele>
        <time>2021-07-23T16:35:44Z</time>
      </trkpt>
      <trkpt lat="49.19888" lon="5.45003">
        <ele>291.42</ele>
        <time>2021-07-23T16:35:56Z</time>
      </trkpt>
      <trkpt lat="49.20052" lon="5.45267">
        <ele>282.28</ele>
        <time>2021-07-23T16:36:12Z</time>
      </trkpt>
      <trkpt lat="49.20129" lon="5.45326">
        <ele>278.44</ele>
        <time>2021-07-23T16:36:19Z</time>
      </trkpt>
      <trkpt lat="49.20327" lon="5.45409">
        <ele>272.67</ele>
        <time>2021-07-23T16:36:33Z</time>
      </trkpt>
      <trkpt lat="49.20508" lon="5.45505">
        <ele>265.94</ele>
        <time>2021-07-23T16:36:46Z</time>
      </trkpt>
      <trkpt lat="49.20597" lon="5.45616">
        <ele>268.35</ele>
        <time>2021-07-23T16:36:54Z</time>
      </trkpt>
      <trkpt lat="49.20606" lon="5.45631">
        <ele>268.83</ele>
        <time>2021-07-23T16:36:55Z</time>
      </trkpt>
      <trkpt lat="49.20614" lon="5.45644">
        <ele>269.31</ele>
        <time>2021-07-23T16:36:56Z</time>
      </trkpt>
      <trkpt lat="49.2062" lon="5.45662">
        <ele>269.31</ele>
        <time>2021-07-23T16:36:57Z</time>
      </trkpt>
      <trkpt lat="49.20626" lon="5.45679">
        <ele>268.83</ele>
        <time>2021-07-23T16:36:58Z</time>
      </trkpt>
      <trkpt lat="49.20633" lon="5.45699">
        <ele>267.86</ele>
        <time>2021-07-23T16:36:59Z</time>
      </trkpt>
      <trkpt lat="49.20645" lon="5.45761">
        <ele>266.9</ele>
        <time>2021-07-23T16:37:02Z</time>
      </trkpt>
      <trkpt lat="49.20647" lon="5.45777">
        <ele>266.9</ele>
        <time>2021-07-23T16:37:03Z</time>
      </trkpt>
      <trkpt lat="49.20647" lon="5.45789">
        <ele>266.9</ele>
        <time>2021-07-23T16:37:04Z</time>
      </trkpt>
      <trkpt lat="49.20644" lon="5.4588">
        <ele>268.35</ele>
        <time>2021-07-23T16:37:13Z</time>
      </trkpt>
      <trkpt lat="49.20622" lon="5.46077">
        <ele>266.9</ele>
        <time>2021-07-23T16:37:26Z</time>
      </trkpt>
      <trkpt lat="49.20591" lon="5.46267">
        <ele>267.86</ele>
        <time>2021-07-23T16:37:38Z</time>
      </trkpt>
      <trkpt lat="49.2058" lon="5.46355">
        <ele>268.35</ele>
        <time>2021-07-23T16:37:43Z</time>
      </trkpt>
      <trkpt lat="49.20581" lon="5.46372">
        <ele>268.83</ele>
        <time>2021-07-23T16:37:44Z</time>
      </trkpt>
      <trkpt lat="49.20594" lon="5.46635">
        <ele>269.31</ele>
        <time>2021-07-23T16:37:59Z</time>
      </trkpt>
      <trkpt lat="49.20588" lon="5.46854">
        <ele>268.35</ele>
        <time>2021-07-23T16:38:12Z</time>
      </trkpt>
      <trkpt lat="49.20574" lon="5.46971">
        <ele>266.9</ele>
        <time>2021-07-23T16:38:20Z</time>
      </trkpt>
      <trkpt lat="49.20573" lon="5.4698">
        <ele>266.42</ele>
        <time>2021-07-23T16:38:21Z</time>
      </trkpt>
      <trkpt lat="49.20573" lon="5.46986">
        <ele>265.94</ele>
        <time>2021-07-23T16:38:22Z</time>
      </trkpt>
      <trkpt lat="49.20577" lon="5.46994">
        <ele>265.94</ele>
        <time>2021-07-23T16:38:23Z</time>
      </trkpt>
      <trkpt lat="49.20584" lon="5.47009">
        <ele>264.98</ele>
        <time>2021-07-23T16:38:24Z</time>
      </trkpt>
      <trkpt lat="49.20606" lon="5.47051">
        <ele>261.14</ele>
        <time>2021-07-23T16:38:33Z</time>
      </trkpt>
      <trkpt lat="49.20631" lon="5.47069">
        <ele>257.29</ele>
        <time>2021-07-23T16:38:43Z</time>
      </trkpt>
      <trkpt lat="49.20715" lon="5.47071">
        <ele>252.48</ele>
        <time>2021-07-23T16:38:54Z</time>
      </trkpt>
      <trkpt lat="49.20735" lon="5.4707">
        <ele>252.48</ele>
        <time>2021-07-23T16:38:58Z</time>
      </trkpt>
      <trkpt lat="49.20741" lon="5.4707">
        <ele>252</ele>
        <time>2021-07-23T16:38:59Z</time>
      </trkpt>
      <trkpt lat="49.20748" lon="5.4707">
        <ele>252.48</ele>
        <time>2021-07-23T16:39:07Z</time>
      </trkpt>
      <trkpt lat="49.20796" lon="5.47069">
        <ele>252</ele>
        <time>2021-07-23T16:39:17Z</time>
      </trkpt>
      <trkpt lat="49.20931" lon="5.47066">
        <ele>254.89</ele>
        <time>2021-07-23T16:39:34Z</time>
      </trkpt>
      <trkpt lat="49.20962" lon="5.47066">
        <ele>256.81</ele>
        <time>2021-07-23T16:39:39Z</time>
      </trkpt>
      <trkpt lat="49.20967" lon="5.47066">
        <ele>257.29</ele>
        <time>2021-07-23T16:39:40Z</time>
      </trkpt>
      <trkpt lat="49.20972" lon="5.47066">
        <ele>257.77</ele>
        <time>2021-07-23T16:39:41Z</time>
      </trkpt>
      <trkpt lat="49.20976" lon="5.47066">
        <ele>257.77</ele>
        <time>2021-07-23T16:39:42Z</time>
      </trkpt>
      <trkpt lat="49.2098" lon="5.47066">
        <ele>257.77</ele>
        <time>2021-07-23T16:39:43Z</time>
      </trkpt>
      <trkpt lat="49.20995" lon="5.47066">
        <ele>257.29</ele>
        <time>2021-07-23T16:39:44Z</time>
      </trkpt>
      <trkpt lat="49.20995" lon="5.47066">
        <ele>257.29</ele>
        <time>2021-07-23T16:39:45Z</time>
      </trkpt>
      <trkpt lat="49.20995" lon="5.47066">
        <ele>257.29</ele>
        <time>2021-07-23T16:39:46Z</time>
      </trkpt>
      <trkpt lat="49.20995" lon="5.47066">
        <ele>257.29</ele>
        <time>2021-07-23T16:39:47Z</time>
      </trkpt>
    </trkseg>
  </trk>
</gpx>